Time;durP1;ratioP1;P1;durP2;ratioP2;P2;SDS_P1;SDS_P2;PMS_P1;PMS_P2;Temp;Humidity;BMP_temperature;BMP_pressure;BME280_temperature;BME280_humidity;BME280_pressure;Samples;Min_cycle;Max_cycle;Signal;HPM_P1;HPM_P2
2023/11/22 00:00:41;;;;;;;35.67;20.48;;;;;;;;;;2091042;28;20087;-58
2023/11/22 00:01:42;;;;;;;33.55;19.45;;;;;;;;;;2090672;28;20049;-58
2023/11/22 00:02:43;;;;;;;33.38;19.92;;;;;;;;;;2090887;28;20045;-58
2023/11/22 00:03:44;;;;;;;38.72;21.83;;;;;;;;;;2091002;28;20504;-58
2023/11/22 00:04:44;;;;;;;37.33;19.30;;;;;;;;;;2091329;28;20060;-58
2023/11/22 00:05:46;;;;;;;39.42;21.25;;;;;;;;;;2091156;28;20036;-58
2023/11/22 00:06:47;;;;;;;38.20;21.05;;;;;;;;;;2090966;28;20049;-58
2023/11/22 00:07:48;;;;;;;37.55;21.13;;;;;;;;;;2090988;28;20545;-58
2023/11/22 00:08:48;;;;;;;32.03;19.60;;;;;;;;;;2090357;28;20469;-58
2023/11/22 00:09:49;;;;;;;38.10;20.98;;;;;;;;;;2091381;28;20389;-59
2023/11/22 00:10:50;;;;;;;41.13;21.77;;;;;;;;;;2090669;28;20072;-58
2023/11/22 00:11:50;;;;;;;35.17;20.48;;;;;;;;;;2091051;28;20037;-58
2023/11/22 00:12:51;;;;;;;36.65;21.08;;;;;;;;;;2090571;28;20048;-58
2023/11/22 00:13:55;;;;;;;35.08;21.80;;;;;;;;;;2091108;28;20021;-58
2023/11/22 00:14:56;;;;;;;36.75;22.20;;;;;;;;;;2091106;28;20029;-58
2023/11/22 00:15:57;;;;;;;40.10;22.23;;;;;;;;;;2090570;28;20045;-58
2023/11/22 00:16:58;;;;;;;37.00;21.77;;;;;;;;;;2090221;28;20461;-58
2023/11/22 00:18:03;;;;;;;39.17;21.98;;;;;;;;;;2090790;28;20388;-58
2023/11/22 00:19:05;;;;;;;37.45;21.75;;;;;;;;;;2090830;28;20044;-58
2023/11/22 00:20:06;;;;;;;40.40;22.25;;;;;;;;;;2090768;28;20044;-58
2023/11/22 00:21:07;;;;;;;39.08;22.38;;;;;;;;;;2090915;28;20041;-58
2023/11/22 00:22:13;;;;;;;39.38;22.23;;;;;;;;;;2090779;28;20033;-58
2023/11/22 00:23:13;;;;;;;43.10;22.42;;;;;;;;;;2090800;28;20040;-58
2023/11/22 00:24:14;;;;;;;41.92;21.60;;;;;;;;;;2090927;28;20032;-58
2023/11/22 00:25:15;;;;;;;41.53;22.85;;;;;;;;;;2090793;28;20033;-58
2023/11/22 00:26:15;;;;;;;38.97;22.48;;;;;;;;;;2090722;28;20090;-58
2023/11/22 00:27:22;;;;;;;37.17;21.67;;;;;;;;;;2089751;28;20037;-58
2023/11/22 00:28:23;;;;;;;41.25;22.38;;;;;;;;;;2081781;28;20037;-58
2023/11/22 00:29:24;;;;;;;39.97;22.08;;;;;;;;;;2090054;28;20044;-58
2023/11/22 00:30:25;;;;;;;41.45;21.85;;;;;;;;;;2090529;28;20033;-58
2023/11/22 00:31:26;;;;;;;41.40;22.73;;;;;;;;;;2090777;28;20041;-58
2023/11/22 00:32:27;;;;;;;36.97;22.55;;;;;;;;;;2090683;28;20044;-58
2023/11/22 00:33:27;;;;;;;39.72;21.63;;;;;;;;;;2090771;28;20056;-58
2023/11/22 00:34:28;;;;;;;40.53;22.27;;;;;;;;;;2090623;28;20037;-58
2023/11/22 00:35:30;;;;;;;39.72;22.13;;;;;;;;;;2090857;28;20441;-58
2023/11/22 00:36:30;;;;;;;38.97;21.15;;;;;;;;;;2090354;28;20056;-58
2023/11/22 00:37:31;;;;;;;35.88;21.77;;;;;;;;;;2090617;28;20040;-58
2023/11/22 00:38:34;;;;;;;39.92;22.98;;;;;;;;;;2090101;28;20462;-58
2023/11/22 00:39:35;;;;;;;43.28;22.83;;;;;;;;;;2090075;28;20029;-58
2023/11/22 00:40:35;;;;;;;41.22;23.33;;;;;;;;;;2090601;28;20029;-57
2023/11/22 00:41:36;;;;;;;37.92;22.58;;;;;;;;;;2090563;28;20083;-57
2023/11/22 00:42:39;;;;;;;37.97;21.17;;;;;;;;;;2090703;28;20358;-58
2023/11/22 00:43:40;;;;;;;39.67;22.75;;;;;;;;;;2090561;28;20033;-58
2023/11/22 00:44:40;;;;;;;35.25;21.02;;;;;;;;;;2090784;28;20025;-58
2023/11/22 00:45:41;;;;;;;38.50;21.98;;;;;;;;;;2089714;28;20045;-58
2023/11/22 00:46:42;;;;;;;40.05;22.90;;;;;;;;;;2089694;28;20056;-58
2023/11/22 00:47:43;;;;;;;38.08;21.75;;;;;;;;;;2090620;28;20033;-58
2023/11/22 00:48:43;;;;;;;39.17;22.63;;;;;;;;;;2090559;28;20366;-58
2023/11/22 00:49:44;;;;;;;41.63;22.73;;;;;;;;;;2090532;28;20492;-58
2023/11/22 00:50:45;;;;;;;47.35;23.13;;;;;;;;;;2090507;28;20049;-58
2023/11/22 00:51:45;;;;;;;44.00;22.45;;;;;;;;;;2090336;28;20037;-58
2023/11/22 00:52:47;;;;;;;41.45;23.33;;;;;;;;;;2082339;28;20052;-58
2023/11/22 00:53:47;;;;;;;39.38;21.67;;;;;;;;;;2089351;28;20045;-58
2023/11/22 00:54:48;;;;;;;42.53;23.17;;;;;;;;;;2089934;28;20037;-58
2023/11/22 00:55:49;;;;;;;37.22;23.20;;;;;;;;;;2089976;28;20091;-58
2023/11/22 00:56:50;;;;;;;37.47;20.98;;;;;;;;;;2090663;28;20410;-58
2023/11/22 00:57:50;;;;;;;41.65;22.33;;;;;;;;;;2090786;28;20043;-57
2023/11/22 00:58:53;;;;;;;37.85;21.95;;;;;;;;;;2090082;28;20048;-58
2023/11/22 00:59:53;;;;;;;38.38;21.33;;;;;;;;;;2089978;28;20052;-58
2023/11/22 01:00:54;;;;;;;37.38;19.95;;;;;;;;;;2089830;28;20072;-58
2023/11/22 01:01:55;;;;;;;39.53;21.92;;;;;;;;;;2081898;28;20044;-58
2023/11/22 01:02:56;;;;;;;38.08;21.27;;;;;;;;;;2089631;28;20041;-58
2023/11/22 01:03:57;;;;;;;34.30;21.20;;;;;;;;;;2090424;28;20045;-59
2023/11/22 01:04:58;;;;;;;38.15;21.30;;;;;;;;;;2090589;28;20040;-59
2023/11/22 01:05:59;;;;;;;37.22;20.98;;;;;;;;;;2090429;28;20056;-58
2023/11/22 01:06:59;;;;;;;38.38;21.23;;;;;;;;;;2090324;28;20041;-58
2023/11/22 01:08:01;;;;;;;36.20;22.10;;;;;;;;;;2089800;28;20107;-58
2023/11/22 01:09:03;;;;;;;37.63;21.58;;;;;;;;;;2089416;28;20048;-58
2023/11/22 01:10:05;;;;;;;39.40;21.67;;;;;;;;;;2090059;28;20028;-58
2023/11/22 01:11:07;;;;;;;38.80;21.15;;;;;;;;;;2090513;28;20037;-58
2023/11/22 01:12:09;;;;;;;40.03;22.02;;;;;;;;;;2090402;28;20021;-58
2023/11/22 01:13:09;;;;;;;36.05;21.58;;;;;;;;;;2090302;28;20041;-58
2023/11/22 01:14:10;;;;;;;39.78;22.67;;;;;;;;;;2090124;28;20037;-58
2023/11/22 01:15:11;;;;;;;40.28;22.88;;;;;;;;;;2090206;28;20491;-59
2023/11/22 01:16:12;;;;;;;41.47;21.40;;;;;;;;;;2090399;28;20037;-58
2023/11/22 01:17:13;;;;;;;36.80;21.45;;;;;;;;;;2089683;28;20393;-58
2023/11/22 01:18:14;;;;;;;38.42;22.60;;;;;;;;;;2090333;28;20033;-58
2023/11/22 01:19:14;;;;;;;38.03;20.65;;;;;;;;;;2090344;28;20048;-58
2023/11/22 01:20:15;;;;;;;38.45;20.95;;;;;;;;;;2090299;28;20075;-58
2023/11/22 01:21:16;;;;;;;39.10;21.13;;;;;;;;;;2090360;28;20049;-58
2023/11/22 01:22:17;;;;;;;38.90;19.98;;;;;;;;;;2089989;28;20056;-58
2023/11/22 01:23:17;;;;;;;39.00;20.83;;;;;;;;;;2090313;28;20033;-59
2023/11/22 01:24:18;;;;;;;37.40;20.40;;;;;;;;;;2090780;28;20051;-59
2023/11/22 01:25:19;;;;;;;39.10;18.42;;;;;;;;;;2090026;28;20041;-59
2023/11/22 01:26:20;;;;;;;36.83;20.40;;;;;;;;;;2089252;28;20124;-59
2023/11/22 01:27:20;;;;;;;34.45;19.45;;;;;;;;;;2090255;28;20044;-59
2023/11/22 01:28:21;;;;;;;32.90;19.27;;;;;;;;;;2090477;28;20065;-59
2023/11/22 01:29:23;;;;;;;32.38;18.40;;;;;;;;;;2090197;28;20040;-61
2023/11/22 01:30:24;;;;;;;34.45;19.38;;;;;;;;;;2089620;28;20519;-61
2023/11/22 01:31:25;;;;;;;32.50;18.20;;;;;;;;;;2089627;28;20037;-62
2023/11/22 01:32:27;;;;;;;33.50;18.75;;;;;;;;;;2089726;28;20029;-62
2023/11/22 01:33:29;;;;;;;34.42;20.33;;;;;;;;;;2090559;28;20037;-62
2023/11/22 01:34:30;;;;;;;36.10;20.60;;;;;;;;;;2090247;28;20033;-61
2023/11/22 01:35:30;;;;;;;32.58;18.83;;;;;;;;;;2090185;28;20385;-62
2023/11/22 01:36:31;;;;;;;27.80;16.33;;;;;;;;;;2090106;28;20033;-63
2023/11/22 01:37:32;;;;;;;36.65;18.38;;;;;;;;;;2089929;28;20036;-62
2023/11/22 01:38:33;;;;;;;29.40;17.10;;;;;;;;;;2090352;28;20040;-62
2023/11/22 01:39:33;;;;;;;28.05;16.30;;;;;;;;;;2090199;28;20033;-62
2023/11/22 01:40:34;;;;;;;25.27;15.30;;;;;;;;;;2089557;28;20406;-62
2023/11/22 01:41:35;;;;;;;27.45;16.27;;;;;;;;;;2089769;28;20036;-62
2023/11/22 01:42:36;;;;;;;26.65;15.20;;;;;;;;;;2090256;28;20025;-61
2023/11/22 01:43:39;;;;;;;23.95;15.18;;;;;;;;;;2090199;28;20040;-62
2023/11/22 01:44:41;;;;;;;31.85;17.50;;;;;;;;;;2090477;28;20052;-61
2023/11/22 01:45:42;;;;;;;26.98;16.15;;;;;;;;;;2090434;28;20465;-61
2023/11/22 01:46:43;;;;;;;24.42;15.50;;;;;;;;;;2090202;28;20028;-60
2023/11/22 01:47:44;;;;;;;23.92;15.48;;;;;;;;;;2089880;28;20043;-61
2023/11/22 01:48:45;;;;;;;16.92;10.25;;;;;;;;;;2081577;28;20089;-60
2023/11/22 01:49:46;;;;;;;20.08;11.82;;;;;;;;;;2089678;28;20037;-61
2023/11/22 01:50:46;;;;;;;14.80;9.55;;;;;;;;;;2090267;28;20056;-60
2023/11/22 01:51:48;;;;;;;19.17;12.45;;;;;;;;;;2089608;28;20067;-60
2023/11/22 01:52:49;;;;;;;18.50;11.48;;;;;;;;;;2089649;28;20493;-60
2023/11/22 01:53:53;;;;;;;13.57;8.55;;;;;;;;;;2090192;28;20017;-59
2023/11/22 01:54:53;;;;;;;14.52;9.10;;;;;;;;;;2089814;28;20390;-58
2023/11/22 01:55:54;;;;;;;13.13;9.02;;;;;;;;;;2089610;28;20021;-58
2023/11/22 01:56:55;;;;;;;11.02;7.15;;;;;;;;;;2089889;28;20037;-59
2023/11/22 01:57:56;;;;;;;14.07;8.82;;;;;;;;;;2089839;28;20041;-58
2023/11/22 01:58:57;;;;;;;13.75;8.63;;;;;;;;;;2089792;28;20096;-59
2023/11/22 01:59:57;;;;;;;10.88;6.38;;;;;;;;;;2073146;28;20382;-58
2023/11/22 02:00:58;;;;;;;11.68;6.78;;;;;;;;;;2081344;28;20052;-59
2023/11/22 02:01:59;;;;;;;11.90;6.82;;;;;;;;;;2073963;28;20030;-59
2023/11/22 02:03:00;;;;;;;19.13;10.10;;;;;;;;;;2082120;28;20045;-59
2023/11/22 02:04:00;;;;;;;13.95;7.70;;;;;;;;;;2089526;28;20044;-58
2023/11/22 02:05:02;;;;;;;14.82;7.97;;;;;;;;;;2089495;28;20029;-58
2023/11/22 02:06:05;;;;;;;14.10;8.50;;;;;;;;;;2089621;28;20033;-58
2023/11/22 02:07:05;;;;;;;14.57;8.90;;;;;;;;;;2090151;28;20037;-58
2023/11/22 02:08:06;;;;;;;10.52;6.10;;;;;;;;;;2089485;28;20048;-58
2023/11/22 02:09:13;;;;;;;16.58;9.20;;;;;;;;;;2073580;28;20046;-58
2023/11/22 02:10:14;;;;;;;15.63;9.93;;;;;;;;;;2082440;28;20493;-58
2023/11/22 02:11:21;;;;;;;20.10;12.18;;;;;;;;;;2089809;28;20037;-59
2023/11/22 02:12:22;;;;;;;19.00;9.85;;;;;;;;;;2090110;28;20048;-58
2023/11/22 02:13:23;;;;;;;13.50;7.75;;;;;;;;;;2089444;28;20048;-58
2023/11/22 02:14:24;;;;;;;17.45;10.65;;;;;;;;;;2089605;28;20076;-58
2023/11/22 02:15:25;;;;;;;18.50;10.43;;;;;;;;;;2089991;28;20033;-58
2023/11/22 02:16:27;;;;;;;16.77;10.32;;;;;;;;;;2090380;28;20045;-58
2023/11/22 02:17:28;;;;;;;16.20;10.25;;;;;;;;;;2080695;28;20033;-58
2023/11/22 02:18:29;;;;;;;18.77;10.85;;;;;;;;;;2081218;28;20045;-57
2023/11/22 02:19:31;;;;;;;14.30;7.47;;;;;;;;;;2089172;28;20041;-57
2023/11/22 02:20:32;;;;;;;14.10;8.20;;;;;;;;;;2090105;28;20085;-58
2023/11/22 02:21:33;;;;;;;15.55;8.88;;;;;;;;;;2090853;28;20469;-57
2023/11/22 02:22:34;;;;;;;18.60;9.98;;;;;;;;;;2099702;28;20404;-59
2023/11/22 02:23:34;;;;;;;14.80;9.90;;;;;;;;;;2107945;28;20073;-58
2023/11/22 02:24:35;;;;;;;11.95;6.75;;;;;;;;;;2091653;28;20435;-58
2023/11/22 02:25:37;;;;;;;14.35;9.88;;;;;;;;;;2091653;28;20500;-58
2023/11/22 02:26:38;;;;;;;11.13;6.07;;;;;;;;;;2091655;28;20113;-58
2023/11/22 02:27:39;;;;;;;11.85;7.88;;;;;;;;;;2091055;28;20041;-58
2023/11/22 02:28:40;;;;;;;10.60;6.82;;;;;;;;;;2091147;28;20132;-58
2023/11/22 02:29:41;;;;;;;8.43;4.47;;;;;;;;;;2091724;28;20472;-58
2023/11/22 02:30:42;;;;;;;8.88;4.28;;;;;;;;;;2091511;28;20029;-59
2023/11/22 02:31:45;;;;;;;12.07;8.40;;;;;;;;;;2091544;28;20073;-58
2023/11/22 02:32:46;;;;;;;9.90;5.07;;;;;;;;;;2091649;28;20037;-59
2023/11/22 02:33:47;;;;;;;8.00;4.22;;;;;;;;;;2091802;28;20037;-58
2023/11/22 02:34:48;;;;;;;9.63;5.88;;;;;;;;;;2091261;28;20036;-58
2023/11/22 02:35:49;;;;;;;10.60;6.68;;;;;;;;;;2082684;28;20033;-58
2023/11/22 02:36:50;;;;;;;12.55;5.20;;;;;;;;;;2083082;28;20501;-58
2023/11/22 02:37:51;;;;;;;11.45;6.38;;;;;;;;;;2091320;28;20020;-58
2023/11/22 02:38:51;;;;;;;9.57;4.50;;;;;;;;;;2090502;28;20041;-57
2023/11/22 02:39:55;;;;;;;9.50;5.65;;;;;;;;;;2091414;28;20075;-58
2023/11/22 02:40:56;;;;;;;11.32;6.45;;;;;;;;;;2091050;28;20056;-58
2023/11/22 02:41:58;;;;;;;13.05;8.10;;;;;;;;;;2091156;28;20080;-58
2023/11/22 02:43:05;;;;;;;6.50;3.90;;;;;;;;;;2091537;28;20040;-58
2023/11/22 02:44:08;;;;;;;9.85;6.18;;;;;;;;;;2091568;28;20041;-58
2023/11/22 02:45:09;;;;;;;8.48;5.85;;;;;;;;;;2090864;28;20531;-58
2023/11/22 02:46:10;;;;;;;10.18;5.80;;;;;;;;;;2091217;28;20037;-58
2023/11/22 02:47:10;;;;;;;14.20;8.23;;;;;;;;;;2091548;28;20473;-58
2023/11/22 02:48:13;;;;;;;11.10;5.47;;;;;;;;;;2090596;28;20076;-57
2023/11/22 02:49:14;;;;;;;10.32;5.88;;;;;;;;;;2082812;28;20048;-58
2023/11/22 02:50:15;;;;;;;10.57;5.55;;;;;;;;;;2090871;28;20400;-57
2023/11/22 02:51:16;;;;;;;11.65;7.60;;;;;;;;;;2082900;28;20041;-57
2023/11/22 02:52:17;;;;;;;12.23;6.80;;;;;;;;;;2091037;28;20048;-57
2023/11/22 02:53:18;;;;;;;11.98;7.57;;;;;;;;;;2091229;28;20044;-58
2023/11/22 02:54:19;;;;;;;7.57;4.57;;;;;;;;;;2091764;28;20040;-57
2023/11/22 02:55:19;;;;;;;10.55;5.93;;;;;;;;;;2090912;28;20424;-57
2023/11/22 02:56:21;;;;;;;9.27;6.05;;;;;;;;;;2090975;28;20041;-58
2023/11/22 02:57:21;;;;;;;12.63;7.60;;;;;;;;;;2091079;28;20025;-57
2023/11/22 02:58:22;;;;;;;9.85;4.32;;;;;;;;;;2091635;28;20041;-57
2023/11/22 02:59:23;;;;;;;10.25;6.45;;;;;;;;;;2091374;28;20037;-58
2023/11/22 03:00:24;;;;;;;9.85;6.20;;;;;;;;;;2091136;28;20392;-57
2023/11/22 03:01:26;;;;;;;11.07;6.32;;;;;;;;;;2090825;28;20045;-58
2023/11/22 03:02:26;;;;;;;11.93;7.15;;;;;;;;;;2090792;28;20086;-57
2023/11/22 03:03:28;;;;;;;10.52;6.85;;;;;;;;;;2091051;28;20033;-57
2023/11/22 03:04:28;;;;;;;8.27;3.85;;;;;;;;;;2091671;28;20040;-58
2023/11/22 03:05:29;;;;;;;10.93;6.50;;;;;;;;;;2091540;28;20040;-57
2023/11/22 03:06:30;;;;;;;9.38;4.47;;;;;;;;;;2091769;28;20595;-57
2023/11/22 03:07:31;;;;;;;9.40;5.65;;;;;;;;;;2091381;28;20041;-58
2023/11/22 03:08:32;;;;;;;11.00;5.28;;;;;;;;;;2090731;28;20037;-58
2023/11/22 03:09:34;;;;;;;11.95;7.15;;;;;;;;;;2090739;28;20388;-58
2023/11/22 03:10:36;;;;;;;12.38;7.68;;;;;;;;;;2091371;28;20033;-57
2023/11/22 03:11:38;;;;;;;15.77;7.38;;;;;;;;;;2090991;28;20037;-58
2023/11/22 03:12:39;;;;;;;12.32;7.80;;;;;;;;;;2091247;28;20420;-58
2023/11/22 03:13:39;;;;;;;12.18;6.20;;;;;;;;;;2091460;28;20037;-58
2023/11/22 03:14:40;;;;;;;11.52;3.90;;;;;;;;;;2091098;28;20392;-57
2023/11/22 03:15:42;;;;;;;8.93;5.15;;;;;;;;;;2091117;28;20040;-58
2023/11/22 03:16:43;;;;;;;12.88;7.50;;;;;;;;;;2090527;28;20025;-57
2023/11/22 03:17:44;;;;;;;9.27;5.93;;;;;;;;;;2090922;28;20025;-57
2023/11/22 03:18:45;;;;;;;11.88;7.63;;;;;;;;;;2091242;28;20064;-58
2023/11/22 03:19:46;;;;;;;11.93;6.68;;;;;;;;;;2090920;28;20049;-58
2023/11/22 03:20:47;;;;;;;10.65;5.82;;;;;;;;;;2090641;28;20036;-58
2023/11/22 03:21:47;;;;;;;11.55;4.93;;;;;;;;;;2091440;28;20384;-57
2023/11/22 03:22:50;;;;;;;12.68;7.57;;;;;;;;;;2091234;28;20485;-58
2023/11/22 03:23:51;;;;;;;11.30;7.45;;;;;;;;;;2091528;28;20029;-58
2023/11/22 03:24:52;;;;;;;8.02;4.25;;;;;;;;;;2090594;28;20033;-57
2023/11/22 03:25:53;;;;;;;12.80;8.38;;;;;;;;;;2082088;28;20491;-58
2023/11/22 03:26:56;;;;;;;13.60;7.57;;;;;;;;;;2082774;28;20041;-59
2023/11/22 03:27:56;;;;;;;12.73;7.95;;;;;;;;;;2091184;28;20051;-57
2023/11/22 03:28:57;;;;;;;15.30;9.43;;;;;;;;;;2091384;28;20032;-58
2023/11/22 03:29:59;;;;;;;12.30;6.20;;;;;;;;;;2091173;28;20037;-58
2023/11/22 03:30:59;;;;;;;9.93;5.70;;;;;;;;;;2091395;28;20044;-58
2023/11/22 03:32:00;;;;;;;12.82;7.72;;;;;;;;;;2091179;28;20036;-58
2023/11/22 03:33:01;;;;;;;14.80;8.23;;;;;;;;;;2091177;28;20112;-58
2023/11/22 03:34:02;;;;;;;14.63;8.93;;;;;;;;;;2090532;28;20039;-57
2023/11/22 03:35:04;;;;;;;16.08;9.38;;;;;;;;;;2082511;28;20034;-58
2023/11/22 03:36:05;;;;;;;15.60;10.43;;;;;;;;;;2082739;28;20038;-58
2023/11/22 03:37:07;;;;;;;16.60;9.52;;;;;;;;;;2091086;28;20025;-58
2023/11/22 03:38:08;;;;;;;12.75;7.43;;;;;;;;;;2091176;28;20052;-58
2023/11/22 03:39:10;;;;;;;14.88;8.88;;;;;;;;;;2091163;28;20048;-58
2023/11/22 03:40:11;;;;;;;14.50;8.07;;;;;;;;;;2091298;28;20029;-58
2023/11/22 03:41:12;;;;;;;8.70;4.60;;;;;;;;;;2091063;28;20052;-58
2023/11/22 03:42:12;;;;;;;12.82;6.60;;;;;;;;;;2091096;28;20040;-58
2023/11/22 03:43:13;;;;;;;13.00;8.00;;;;;;;;;;2091252;28;20045;-58
2023/11/22 03:44:14;;;;;;;14.32;9.10;;;;;;;;;;2091083;28;20036;-58
2023/11/22 03:45:14;;;;;;;13.93;9.43;;;;;;;;;;2091023;28;20040;-58
2023/11/22 03:46:15;;;;;;;13.32;7.13;;;;;;;;;;2091277;28;20041;-58
2023/11/22 03:47:16;;;;;;;12.63;8.23;;;;;;;;;;2091196;28;20037;-58
2023/11/22 03:48:17;;;;;;;10.73;7.13;;;;;;;;;;2090745;28;20401;-58
2023/11/22 03:49:18;;;;;;;14.40;8.63;;;;;;;;;;2090695;28;20078;-58
2023/11/22 03:50:19;;;;;;;14.40;8.50;;;;;;;;;;2090963;28;20036;-58
2023/11/22 03:51:20;;;;;;;13.32;8.35;;;;;;;;;;2091164;28;20044;-58
2023/11/22 03:52:21;;;;;;;11.63;6.07;;;;;;;;;;2091059;28;20499;-57
2023/11/22 03:53:22;;;;;;;10.57;6.32;;;;;;;;;;2091120;28;20025;-58
2023/11/22 03:54:23;;;;;;;13.45;7.65;;;;;;;;;;2090990;28;20048;-58
2023/11/22 03:55:24;;;;;;;12.90;7.68;;;;;;;;;;2091018;28;20040;-58
2023/11/22 03:56:25;;;;;;;12.15;7.65;;;;;;;;;;2091175;28;20036;-58
2023/11/22 03:57:25;;;;;;;12.80;7.82;;;;;;;;;;2091670;28;20036;-58
2023/11/22 03:58:26;;;;;;;16.73;8.13;;;;;;;;;;2091517;28;20426;-58
2023/11/22 03:59:27;;;;;;;13.32;8.40;;;;;;;;;;2090941;28;20040;-58
2023/11/22 04:00:28;;;;;;;13.60;8.25;;;;;;;;;;2090642;28;20029;-58
2023/11/22 04:01:29;;;;;;;13.65;7.22;;;;;;;;;;2091169;28;20116;-58
2023/11/22 04:02:29;;;;;;;13.40;7.70;;;;;;;;;;2091115;28;20044;-58
2023/11/22 04:03:30;;;;;;;13.90;8.75;;;;;;;;;;2091260;28;20462;-58
2023/11/22 04:04:31;;;;;;;14.48;8.85;;;;;;;;;;2090900;28;20021;-58
2023/11/22 04:05:31;;;;;;;17.17;9.52;;;;;;;;;;2090992;28;20040;-58
2023/11/22 04:06:33;;;;;;;15.38;9.40;;;;;;;;;;2090417;28;20083;-58
2023/11/22 04:07:34;;;;;;;16.13;9.50;;;;;;;;;;2090663;28;20041;-58
2023/11/22 04:08:34;;;;;;;15.85;9.70;;;;;;;;;;2090907;28;20048;-58
2023/11/22 04:09:35;;;;;;;16.80;10.43;;;;;;;;;;2090811;28;20032;-58
2023/11/22 04:10:36;;;;;;;15.18;8.93;;;;;;;;;;2090981;28;20444;-58
2023/11/22 04:11:36;;;;;;;17.08;9.40;;;;;;;;;;2090859;28;20496;-58
2023/11/22 04:12:37;;;;;;;18.40;11.05;;;;;;;;;;2090805;28;20040;-58
2023/11/22 04:13:38;;;;;;;18.85;12.20;;;;;;;;;;2090863;28;20024;-58
2023/11/22 04:14:39;;;;;;;18.27;11.25;;;;;;;;;;2090811;28;20082;-58
2023/11/22 04:15:40;;;;;;;16.40;10.18;;;;;;;;;;2091185;28;20021;-58
2023/11/22 04:16:41;;;;;;;17.65;10.88;;;;;;;;;;2091133;28;20029;-58
2023/11/22 04:17:41;;;;;;;19.33;12.65;;;;;;;;;;2089881;28;20492;-59
2023/11/22 04:18:43;;;;;;;18.60;12.40;;;;;;;;;;2090931;28;20048;-58
2023/11/22 04:19:43;;;;;;;17.95;10.63;;;;;;;;;;2090995;28;20520;-59
2023/11/22 04:20:44;;;;;;;17.05;9.07;;;;;;;;;;2091084;28;20033;-58
2023/11/22 04:21:45;;;;;;;20.83;11.20;;;;;;;;;;2090790;28;20112;-58
2023/11/22 04:22:46;;;;;;;19.42;10.48;;;;;;;;;;2090824;28;20041;-58
2023/11/22 04:23:48;;;;;;;19.90;10.73;;;;;;;;;;2090752;28;20078;-58
2023/11/22 04:24:48;;;;;;;19.85;11.75;;;;;;;;;;2090742;28;20035;-58
2023/11/22 04:25:49;;;;;;;19.80;11.93;;;;;;;;;;2090882;28;20036;-58
2023/11/22 04:26:50;;;;;;;18.42;9.48;;;;;;;;;;2090769;28;20099;-58
2023/11/22 04:27:51;;;;;;;15.55;8.77;;;;;;;;;;2090732;28;20032;-58
2023/11/22 04:28:51;;;;;;;16.50;10.45;;;;;;;;;;2090705;28;20484;-58
2023/11/22 04:29:52;;;;;;;15.43;9.43;;;;;;;;;;2090610;28;20036;-58
2023/11/22 04:30:53;;;;;;;17.88;10.02;;;;;;;;;;2090693;28;20217;-58
2023/11/22 04:31:54;;;;;;;16.85;9.63;;;;;;;;;;2091118;28;20049;-58
2023/11/22 04:32:54;;;;;;;18.17;9.70;;;;;;;;;;2090320;28;20500;-58
2023/11/22 04:33:57;;;;;;;22.85;11.50;;;;;;;;;;2090301;28;20032;-58
2023/11/22 04:34:58;;;;;;;18.17;9.80;;;;;;;;;;2091088;28;20032;-58
2023/11/22 04:35:59;;;;;;;17.40;9.18;;;;;;;;;;2090684;28;20040;-58
2023/11/22 04:37:00;;;;;;;18.08;9.30;;;;;;;;;;2090740;28;20040;-58
2023/11/22 04:38:00;;;;;;;17.15;10.55;;;;;;;;;;2090750;28;20068;-58
2023/11/22 04:39:01;;;;;;;17.95;11.95;;;;;;;;;;2090694;28;20037;-58
2023/11/22 04:40:04;;;;;;;20.08;12.32;;;;;;;;;;2090363;28;20366;-58
2023/11/22 04:41:04;;;;;;;20.35;10.60;;;;;;;;;;2090998;28;20037;-58
2023/11/22 04:42:05;;;;;;;20.90;12.43;;;;;;;;;;2090614;28;20041;-58
2023/11/22 04:43:06;;;;;;;19.80;11.27;;;;;;;;;;2090853;28;20063;-58
2023/11/22 04:44:07;;;;;;;20.42;11.60;;;;;;;;;;2090433;28;20045;-58
2023/11/22 04:45:09;;;;;;;20.77;12.75;;;;;;;;;;2090843;28;20417;-58
2023/11/22 04:46:10;;;;;;;19.85;12.73;;;;;;;;;;2090705;28;20037;-58
2023/11/22 04:47:10;;;;;;;21.50;11.48;;;;;;;;;;2090892;28;20025;-58
2023/11/22 04:48:14;;;;;;;16.83;8.60;;;;;;;;;;2090982;28;20041;-57
2023/11/22 04:49:15;;;;;;;19.83;12.35;;;;;;;;;;2090537;28;20037;-58
2023/11/22 04:50:16;;;;;;;19.77;12.48;;;;;;;;;;2090714;28;20045;-58
2023/11/22 04:51:16;;;;;;;21.35;11.52;;;;;;;;;;2090502;28;20045;-58
2023/11/22 04:52:17;;;;;;;18.38;10.82;;;;;;;;;;2090535;28;20040;-58
2023/11/22 04:53:18;;;;;;;19.33;10.02;;;;;;;;;;2090612;28;20037;-58
2023/11/22 04:54:19;;;;;;;19.08;10.95;;;;;;;;;;2090657;28;20036;-58
2023/11/22 04:55:20;;;;;;;21.90;11.65;;;;;;;;;;2090755;28;20025;-58
2023/11/22 04:56:21;;;;;;;20.38;11.50;;;;;;;;;;2090695;28;20036;-58
2023/11/22 04:57:21;;;;;;;23.02;13.35;;;;;;;;;;2090462;28;20496;-58
2023/11/22 04:58:22;;;;;;;22.17;10.63;;;;;;;;;;2090214;28;20041;-58
2023/11/22 04:59:23;;;;;;;19.25;10.65;;;;;;;;;;2090547;28;20392;-58
2023/11/22 05:00:24;;;;;;;20.02;11.57;;;;;;;;;;2090653;28;20044;-58
2023/11/22 05:01:25;;;;;;;23.15;11.85;;;;;;;;;;2090401;28;20045;-58
2023/11/22 05:02:26;;;;;;;24.13;12.27;;;;;;;;;;2090349;28;20045;-59
2023/11/22 05:03:27;;;;;;;21.95;12.25;;;;;;;;;;2090439;28;20052;-58
2023/11/22 05:04:28;;;;;;;16.25;6.78;;;;;;;;;;2090821;28;20082;-58
2023/11/22 05:05:29;;;;;;;19.98;8.27;;;;;;;;;;2090459;28;20045;-57
2023/11/22 05:06:29;;;;;;;19.08;10.27;;;;;;;;;;2090640;28;20037;-58
2023/11/22 05:07:30;;;;;;;22.60;11.65;;;;;;;;;;2090626;28;20056;-57
2023/11/22 05:08:31;;;;;;;19.30;10.25;;;;;;;;;;2090452;28;20473;-58
2023/11/22 05:09:32;;;;;;;20.92;11.32;;;;;;;;;;2090491;28;20017;-58
2023/11/22 05:10:32;;;;;;;20.88;10.48;;;;;;;;;;2090406;28;20030;-59
2023/11/22 05:11:33;;;;;;;20.33;11.55;;;;;;;;;;2090575;28;20354;-58
2023/11/22 05:12:34;;;;;;;21.85;11.70;;;;;;;;;;2090122;28;20519;-58
2023/11/22 05:13:35;;;;;;;16.95;8.75;;;;;;;;;;2090369;28;20076;-58
2023/11/22 05:14:36;;;;;;;21.42;12.38;;;;;;;;;;2090465;28;20029;-58
2023/11/22 05:15:36;;;;;;;23.02;13.27;;;;;;;;;;2090319;28;20090;-58
2023/11/22 05:16:37;;;;;;;24.92;14.48;;;;;;;;;;2090514;28;20029;-58
2023/11/22 05:17:38;;;;;;;24.67;14.27;;;;;;;;;;2089381;28;20021;-59
2023/11/22 05:18:39;;;;;;;23.45;13.30;;;;;;;;;;2090257;28;20040;-58
2023/11/22 05:19:39;;;;;;;22.95;14.68;;;;;;;;;;2090143;28;20033;-59
2023/11/22 05:20:40;;;;;;;24.35;14.00;;;;;;;;;;2090609;28;20086;-58
2023/11/22 05:21:41;;;;;;;22.83;13.80;;;;;;;;;;2090513;28;20120;-59
2023/11/22 05:22:41;;;;;;;21.33;13.35;;;;;;;;;;2090190;28;20033;-58
2023/11/22 05:23:42;;;;;;;23.75;13.80;;;;;;;;;;2090286;28;20388;-58
2023/11/22 05:24:43;;;;;;;22.60;14.07;;;;;;;;;;2090349;28;20044;-58
2023/11/22 05:25:44;;;;;;;22.75;13.50;;;;;;;;;;2090632;28;20037;-58
2023/11/22 05:26:45;;;;;;;21.65;12.52;;;;;;;;;;2090570;28;20048;-59
2023/11/22 05:27:46;;;;;;;19.17;11.98;;;;;;;;;;2090302;28;20044;-58
2023/11/22 05:28:47;;;;;;;17.05;10.65;;;;;;;;;;2090302;28;20480;-59
2023/11/22 05:29:48;;;;;;;14.52;9.30;;;;;;;;;;2089985;28;20392;-58
2023/11/22 05:30:48;;;;;;;19.63;10.00;;;;;;;;;;2089698;28;20037;-58
2023/11/22 05:31:49;;;;;;;15.18;9.50;;;;;;;;;;2090452;28;20392;-59
2023/11/22 05:32:51;;;;;;;16.25;9.98;;;;;;;;;;2090472;28;20029;-58
2023/11/22 05:33:52;;;;;;;17.85;9.63;;;;;;;;;;2090231;28;20032;-58
2023/11/22 05:34:52;;;;;;;14.15;8.05;;;;;;;;;;2090231;28;20044;-58
2023/11/22 05:35:53;;;;;;;13.57;6.57;;;;;;;;;;2090003;28;20393;-58
2023/11/22 05:36:54;;;;;;;14.43;9.18;;;;;;;;;;2090260;28;20277;-59
2023/11/22 05:37:55;;;;;;;9.45;6.10;;;;;;;;;;2090220;28;20570;-58
2023/11/22 05:38:58;;;;;;;10.27;6.13;;;;;;;;;;2089990;28;20426;-59
2023/11/22 05:39:59;;;;;;;12.70;7.57;;;;;;;;;;2090403;28;20048;-59
2023/11/22 05:41:00;;;;;;;11.13;6.40;;;;;;;;;;2090422;28;20086;-58
2023/11/22 05:42:01;;;;;;;12.25;6.63;;;;;;;;;;2089817;28;20039;-58
2023/11/22 05:43:02;;;;;;;9.40;5.65;;;;;;;;;;2089610;28;20083;-58
2023/11/22 05:44:02;;;;;;;10.73;6.47;;;;;;;;;;2090173;28;20366;-58
2023/11/22 05:45:05;;;;;;;12.80;7.80;;;;;;;;;;2090498;28;20040;-58
2023/11/22 05:46:06;;;;;;;12.50;7.55;;;;;;;;;;2091043;28;20052;-58
2023/11/22 05:47:07;;;;;;;12.98;7.65;;;;;;;;;;2089938;28;20048;-58
2023/11/22 05:48:08;;;;;;;12.70;7.35;;;;;;;;;;2090509;28;20112;-58
2023/11/22 05:49:10;;;;;;;12.93;8.10;;;;;;;;;;2090556;28;20056;-57
2023/11/22 05:50:11;;;;;;;13.75;7.80;;;;;;;;;;2090468;28;20044;-58
2023/11/22 05:51:12;;;;;;;12.88;7.13;;;;;;;;;;2090130;28;20033;-58
2023/11/22 05:52:13;;;;;;;12.48;7.35;;;;;;;;;;2090670;28;20051;-58
2023/11/22 05:53:19;;;;;;;12.68;6.97;;;;;;;;;;2090279;28;20457;-58
2023/11/22 05:54:19;;;;;;;11.00;6.07;;;;;;;;;;2090456;28;20029;-59
2023/11/22 05:55:20;;;;;;;11.32;6.25;;;;;;;;;;2090263;28;20064;-58
2023/11/22 05:56:21;;;;;;;13.05;8.05;;;;;;;;;;2091114;28;20029;-58
2023/11/22 05:57:22;;;;;;;12.15;5.90;;;;;;;;;;2091256;28;20032;-58
2023/11/22 05:58:23;;;;;;;13.73;8.25;;;;;;;;;;2091528;28;20064;-58